Midfield, Texas
Current Conditions -  °F | °C
As of 6:53 AM on Thursday 23 Oct 2014 (Local Time) from KPSX Reporting Station
Clear Clear  
Wind Chill: 62°   Ceiling: Unl
Heat Index: 62°   Visibility: 8mi
Dew Point: 60°   Wind: 7mph
Humidity: 93%   Direction: 40°NE
Pressure: 30.05"   Gusts: NA
Location:  28.94°N, 96.21°W
Report Text: KPSX 231153Z AUTO 04006KT 8SM CLR 17/16 A3005 RMK AO2 SLP176 T01670156 10194 20161 53001
Loading
Personal Weather Stations






























Interactive Weather Map
Tropical Storm Tracking
New forecast layout! Learn more

10-Day Weather Forecast

Advertisements
Track Severe Weather on mobile